sensor_id;sensor_type;location;lat;lon;timestamp;P1;durP1;ratioP1;P2;durP2;ratioP2
66175;SDS011;52977;44.816;20.538;2022-10-24T11:44:33;17.02;;;7.07;;
66175;SDS011;52977;44.816;20.538;2022-10-24T11:47:13;24.88;;;7.35;;
66175;SDS011;52977;44.816;20.538;2022-10-24T11:49:44;18.95;;;7.85;;
66175;SDS011;52977;44.816;20.538;2022-10-24T11:54:58;22.70;;;7.63;;
66175;SDS011;52977;44.816;20.538;2022-10-24T11:57:31;16.95;;;7.60;;
66175;SDS011;52977;44.816;20.538;2022-10-24T11:59:59;26.00;;;7.55;;
66175;SDS011;52977;44.816;20.538;2022-10-24T12:08:36;20.63;;;7.07;;
66175;SDS011;52977;44.816;20.538;2022-10-24T12:14:05;13.75;;;6.55;;
66175;SDS011;52977;44.816;20.538;2022-10-24T12:19:41;16.02;;;6.35;;
66175;SDS011;52977;44.816;20.538;2022-10-24T12:22:14;14.27;;;6.93;;
66175;SDS011;52977;44.816;20.538;2022-10-24T12:24:48;14.95;;;6.20;;
66175;SDS011;52977;44.816;20.538;2022-10-24T12:27:38;17.50;;;6.43;;
66175;SDS011;52977;44.816;20.538;2022-10-24T12:37:59;11.38;;;5.57;;
66175;SDS011;52977;44.816;20.538;2022-10-24T12:51:27;13.45;;;6.68;;
66175;SDS011;52977;44.816;20.538;2022-10-24T12:59:27;13.68;;;6.05;;
66175;SDS011;52977;44.816;20.538;2022-10-24T13:07:27;26.55;;;9.30;;
66175;SDS011;52977;44.816;20.538;2022-10-24T13:10:16;17.48;;;7.35;;
66175;SDS011;52977;44.816;20.538;2022-10-24T13:15:34;17.25;;;5.88;;
66175;SDS011;52977;44.816;20.538;2022-10-24T13:18:06;18.63;;;6.35;;
66175;SDS011;52977;44.816;20.538;2022-10-24T13:20:43;22.27;;;6.80;;
66175;SDS011;52977;44.816;20.538;2022-10-24T13:23:15;21.52;;;6.40;;
66175;SDS011;52977;44.816;20.538;2022-10-24T13:25:48;20.73;;;6.55;;
66175;SDS011;52977;44.816;20.538;2022-10-24T13:38:52;19.60;;;6.80;;
66175;SDS011;52977;44.816;20.538;2022-10-24T13:41:31;19.17;;;6.07;;
66175;SDS011;52977;44.816;20.538;2022-10-24T13:46:42;13.50;;;6.57;;
66175;SDS011;52977;44.816;20.538;2022-10-24T13:52:31;15.23;;;6.03;;
66175;SDS011;52977;44.816;20.538;2022-10-24T13:55:04;18.85;;;6.43;;
66175;SDS011;52977;44.816;20.538;2022-10-24T14:00:39;20.83;;;8.95;;
66175;SDS011;52977;44.816;20.538;2022-10-24T14:03:13;16.67;;;7.53;;
66175;SDS011;52977;44.816;20.538;2022-10-24T14:05:46;20.70;;;7.00;;
66175;SDS011;52977;44.816;20.538;2022-10-24T14:08:20;23.65;;;7.47;;
66175;SDS011;52977;44.816;20.538;2022-10-24T14:11:11;22.25;;;6.40;;
66175;SDS011;52977;44.816;20.538;2022-10-24T14:13:48;17.27;;;6.43;;
66175;SDS011;52977;44.816;20.538;2022-10-24T14:16:22;23.85;;;6.32;;
66175;SDS011;52977;44.816;20.538;2022-10-24T14:18:50;18.63;;;6.32;;
66175;SDS011;52977;44.816;20.538;2022-10-24T14:21:18;18.48;;;6.32;;
66175;SDS011;52977;44.816;20.538;2022-10-24T14:24:20;17.88;;;5.63;;
66175;SDS011;52977;44.816;20.538;2022-10-24T14:26:43;13.45;;;4.95;;
66175;SDS011;52977;44.816;20.538;2022-10-24T14:29:20;20.73;;;5.82;;
66175;SDS011;52977;44.816;20.538;2022-10-24T14:31:54;19.02;;;6.47;;
66175;SDS011;52977;44.816;20.538;2022-10-24T14:34:23;19.17;;;5.75;;
66175;SDS011;52977;44.816;20.538;2022-10-24T14:36:50;16.13;;;6.20;;
66175;SDS011;52977;44.816;20.538;2022-10-24T14:39:18;18.55;;;6.78;;
66175;SDS011;52977;44.816;20.538;2022-10-24T14:44:19;16.63;;;6.38;;
66175;SDS011;52977;44.816;20.538;2022-10-24T14:47:17;13.32;;;5.80;;
66175;SDS011;52977;44.816;20.538;2022-10-24T14:49:48;17.77;;;5.55;;
66175;SDS011;52977;44.816;20.538;2022-10-24T14:54:53;19.33;;;9.02;;
66175;SDS011;52977;44.816;20.538;2022-10-24T14:57:25;19.63;;;8.23;;
66175;SDS011;52977;44.816;20.538;2022-10-24T14:59:53;22.85;;;7.88;;
66175;SDS011;52977;44.816;20.538;2022-10-24T15:05:13;14.65;;;6.38;;
66175;SDS011;52977;44.816;20.538;2022-10-24T15:07:49;17.27;;;7.30;;
66175;SDS011;52977;44.816;20.538;2022-10-24T15:10:24;22.33;;;7.57;;
66175;SDS011;52977;44.816;20.538;2022-10-24T15:12:59;21.15;;;7.32;;
66175;SDS011;52977;44.816;20.538;2022-10-24T15:20:48;15.02;;;7.10;;
66175;SDS011;52977;44.816;20.538;2022-10-24T15:23:21;19.13;;;7.95;;
66175;SDS011;52977;44.816;20.538;2022-10-24T15:28:36;23.27;;;7.50;;
66175;SDS011;52977;44.816;20.538;2022-10-24T15:31:14;21.00;;;6.45;;
66175;SDS011;52977;44.816;20.538;2022-10-24T15:33:42;20.15;;;7.07;;
66175;SDS011;52977;44.816;20.538;2022-10-24T15:36:28;22.35;;;7.57;;
66175;SDS011;52977;44.816;20.538;2022-10-24T15:39:02;19.65;;;6.80;;
66175;SDS011;52977;44.816;20.538;2022-10-24T15:41:36;19.77;;;7.07;;
66175;SDS011;52977;44.816;20.538;2022-10-24T15:44:05;24.58;;;7.22;;
66175;SDS011;52977;44.816;20.538;2022-10-24T15:46:44;22.98;;;7.18;;
66175;SDS011;52977;44.816;20.538;2022-10-24T15:49:10;21.52;;;7.60;;
66175;SDS011;52977;44.816;20.538;2022-10-24T15:51:39;19.02;;;6.97;;
66175;SDS011;52977;44.816;20.538;2022-10-24T15:54:12;19.80;;;6.90;;
66175;SDS011;52977;44.816;20.538;2022-10-24T15:56:40;24.42;;;7.43;;
66175;SDS011;52977;44.816;20.538;2022-10-24T15:59:07;19.95;;;6.70;;
66175;SDS011;52977;44.816;20.538;2022-10-24T16:01:35;17.65;;;7.05;;
66175;SDS011;52977;44.816;20.538;2022-10-24T16:04:06;16.50;;;6.32;;
66175;SDS011;52977;44.816;20.538;2022-10-24T16:06:33;16.70;;;6.47;;
66175;SDS011;52977;44.816;20.538;2022-10-24T16:09:01;23.30;;;6.65;;
66175;SDS011;52977;44.816;20.538;2022-10-24T16:11:27;18.83;;;7.72;;
66175;SDS011;52977;44.816;20.538;2022-10-24T16:13:54;18.90;;;6.60;;
66175;SDS011;52977;44.816;20.538;2022-10-24T16:16:20;16.60;;;6.70;;
66175;SDS011;52977;44.816;20.538;2022-10-24T16:18:47;20.70;;;6.18;;
66175;SDS011;52977;44.816;20.538;2022-10-24T16:21:15;16.17;;;6.32;;
66175;SDS011;52977;44.816;20.538;2022-10-24T16:23:44;19.00;;;6.35;;
66175;SDS011;52977;44.816;20.538;2022-10-24T16:26:11;21.77;;;6.18;;
66175;SDS011;52977;44.816;20.538;2022-10-24T16:28:38;13.75;;;5.90;;
66175;SDS011;52977;44.816;20.538;2022-10-24T16:31:06;18.10;;;6.07;;
66175;SDS011;52977;44.816;20.538;2022-10-24T16:33:33;18.60;;;6.63;;
66175;SDS011;52977;44.816;20.538;2022-10-24T16:36:00;14.40;;;6.25;;
66175;SDS011;52977;44.816;20.538;2022-10-24T16:38:27;18.75;;;6.65;;
66175;SDS011;52977;44.816;20.538;2022-10-24T16:40:53;19.45;;;6.05;;
66175;SDS011;52977;44.816;20.538;2022-10-24T16:43:21;20.05;;;6.43;;
66175;SDS011;52977;44.816;20.538;2022-10-24T16:45:56;12.93;;;6.30;;
66175;SDS011;52977;44.816;20.538;2022-10-24T16:48:27;17.98;;;6.15;;
66175;SDS011;52977;44.816;20.538;2022-10-24T16:50:54;15.25;;;6.28;;
66175;SDS011;52977;44.816;20.538;2022-10-24T16:53:21;18.98;;;6.32;;
66175;SDS011;52977;44.816;20.538;2022-10-24T16:55:50;20.73;;;7.18;;
66175;SDS011;52977;44.816;20.538;2022-10-24T16:58:19;16.35;;;6.90;;
66175;SDS011;52977;44.816;20.538;2022-10-24T17:00:45;21.75;;;7.45;;
66175;SDS011;52977;44.816;20.538;2022-10-24T17:03:13;15.73;;;6.93;;
66175;SDS011;52977;44.816;20.538;2022-10-24T17:05:39;23.58;;;8.43;;
66175;SDS011;52977;44.816;20.538;2022-10-24T17:08:06;17.48;;;6.60;;
66175;SDS011;52977;44.816;20.538;2022-10-24T17:10:32;15.35;;;6.82;;
66175;SDS011;52977;44.816;20.538;2022-10-24T17:13:00;21.58;;;6.75;;
66175;SDS011;52977;44.816;20.538;2022-10-24T17:15:27;21.80;;;6.57;;
66175;SDS011;52977;44.816;20.538;2022-10-24T17:17:54;18.20;;;6.57;;
66175;SDS011;52977;44.816;20.538;2022-10-24T17:20:20;20.23;;;7.60;;
66175;SDS011;52977;44.816;20.538;2022-10-24T17:22:47;16.45;;;6.50;;
66175;SDS011;52977;44.816;20.538;2022-10-24T17:25:16;20.13;;;6.95;;
66175;SDS011;52977;44.816;20.538;2022-10-24T17:27:46;17.23;;;6.40;;
66175;SDS011;52977;44.816;20.538;2022-10-24T17:30:14;18.83;;;6.57;;
66175;SDS011;52977;44.816;20.538;2022-10-24T17:32:50;18.67;;;6.63;;
66175;SDS011;52977;44.816;20.538;2022-10-24T17:35:19;16.35;;;7.65;;
66175;SDS011;52977;44.816;20.538;2022-10-24T17:40:24;16.67;;;6.90;;
66175;SDS011;52977;44.816;20.538;2022-10-24T17:42:56;17.17;;;7.47;;
66175;SDS011;52977;44.816;20.538;2022-10-24T17:45:23;15.57;;;7.60;;
66175;SDS011;52977;44.816;20.538;2022-10-24T17:47:51;18.40;;;8.10;;
66175;SDS011;52977;44.816;20.538;2022-10-24T17:50:17;16.50;;;7.63;;
66175;SDS011;52977;44.816;20.538;2022-10-24T17:52:44;23.30;;;7.25;;
66175;SDS011;52977;44.816;20.538;2022-10-24T17:55:20;18.88;;;7.57;;
66175;SDS011;52977;44.816;20.538;2022-10-24T17:57:49;19.58;;;6.85;;
66175;SDS011;52977;44.816;20.538;2022-10-24T18:00:16;18.35;;;6.90;;
66175;SDS011;52977;44.816;20.538;2022-10-24T18:02:45;16.00;;;6.72;;
66175;SDS011;52977;44.816;20.538;2022-10-24T18:05:17;24.98;;;7.05;;
66175;SDS011;52977;44.816;20.538;2022-10-24T18:07:44;20.67;;;7.00;;
66175;SDS011;52977;44.816;20.538;2022-10-24T18:10:13;15.68;;;6.75;;
66175;SDS011;52977;44.816;20.538;2022-10-24T18:12:40;21.92;;;7.82;;
66175;SDS011;52977;44.816;20.538;2022-10-24T18:15:11;18.30;;;7.47;;
66175;SDS011;52977;44.816;20.538;2022-10-24T18:17:39;21.85;;;7.00;;
66175;SDS011;52977;44.816;20.538;2022-10-24T18:20:06;17.83;;;6.82;;
66175;SDS011;52977;44.816;20.538;2022-10-24T18:22:35;16.45;;;6.93;;
66175;SDS011;52977;44.816;20.538;2022-10-24T18:25:06;18.15;;;6.68;;
66175;SDS011;52977;44.816;20.538;2022-10-24T18:27:34;20.13;;;7.20;;
66175;SDS011;52977;44.816;20.538;2022-10-24T18:30:02;14.90;;;6.68;;
66175;SDS011;52977;44.816;20.538;2022-10-24T18:32:31;23.33;;;7.53;;
66175;SDS011;52977;44.816;20.538;2022-10-24T18:34:58;23.13;;;6.70;;
66175;SDS011;52977;44.816;20.538;2022-10-24T18:37:25;21.65;;;7.00;;
66175;SDS011;52977;44.816;20.538;2022-10-24T18:39:53;24.02;;;8.00;;
66175;SDS011;52977;44.816;20.538;2022-10-24T18:45:17;22.27;;;8.02;;
66175;SDS011;52977;44.816;20.538;2022-10-24T18:47:47;23.08;;;8.93;;
66175;SDS011;52977;44.816;20.538;2022-10-24T18:50:14;28.70;;;8.95;;
66175;SDS011;52977;44.816;20.538;2022-10-24T18:55:15;18.27;;;8.50;;
66175;SDS011;52977;44.816;20.538;2022-10-24T18:57:44;21.67;;;8.73;;
66175;SDS011;52977;44.816;20.538;2022-10-24T19:00:13;20.38;;;8.27;;
66175;SDS011;52977;44.816;20.538;2022-10-24T19:05:41;23.17;;;8.63;;
66175;SDS011;52977;44.816;20.538;2022-10-24T19:08:12;25.92;;;8.93;;
66175;SDS011;52977;44.816;20.538;2022-10-24T19:10:40;24.38;;;8.88;;
66175;SDS011;52977;44.816;20.538;2022-10-24T19:13:06;25.65;;;9.05;;
66175;SDS011;52977;44.816;20.538;2022-10-24T19:15:37;20.77;;;9.30;;
66175;SDS011;52977;44.816;20.538;2022-10-24T19:18:09;23.02;;;9.07;;
66175;SDS011;52977;44.816;20.538;2022-10-24T19:20:40;23.38;;;9.27;;
66175;SDS011;52977;44.816;20.538;2022-10-24T19:23:11;18.95;;;7.82;;
66175;SDS011;52977;44.816;20.538;2022-10-24T19:25:40;29.38;;;10.52;;
66175;SDS011;52977;44.816;20.538;2022-10-24T19:28:08;18.38;;;10.00;;
66175;SDS011;52977;44.816;20.538;2022-10-24T19:30:41;25.95;;;11.73;;
66175;SDS011;52977;44.816;20.538;2022-10-24T19:33:09;25.15;;;11.85;;
66175;SDS011;52977;44.816;20.538;2022-10-24T19:35:38;25.08;;;9.32;;
66175;SDS011;52977;44.816;20.538;2022-10-24T19:38:16;29.33;;;9.95;;
66175;SDS011;52977;44.816;20.538;2022-10-24T19:43:12;23.88;;;10.18;;
66175;SDS011;52977;44.816;20.538;2022-10-24T19:45:39;23.17;;;9.20;;
66175;SDS011;52977;44.816;20.538;2022-10-24T19:48:06;22.33;;;10.50;;
66175;SDS011;52977;44.816;20.538;2022-10-24T19:50:35;21.70;;;9.20;;
66175;SDS011;52977;44.816;20.538;2022-10-24T19:53:01;21.63;;;9.73;;
66175;SDS011;52977;44.816;20.538;2022-10-24T19:55:28;25.65;;;10.85;;
66175;SDS011;52977;44.816;20.538;2022-10-24T19:57:54;26.73;;;11.05;;
66175;SDS011;52977;44.816;20.538;2022-10-24T20:00:22;28.10;;;10.32;;
66175;SDS011;52977;44.816;20.538;2022-10-24T20:02:48;29.85;;;11.27;;
66175;SDS011;52977;44.816;20.538;2022-10-24T20:05:16;32.55;;;11.52;;
66175;SDS011;52977;44.816;20.538;2022-10-24T20:07:42;27.08;;;12.95;;
66175;SDS011;52977;44.816;20.538;2022-10-24T20:10:09;32.35;;;13.25;;
66175;SDS011;52977;44.816;20.538;2022-10-24T20:12:39;26.70;;;11.70;;
66175;SDS011;52977;44.816;20.538;2022-10-24T20:15:05;22.85;;;10.07;;
66175;SDS011;52977;44.816;20.538;2022-10-24T20:17:34;29.10;;;10.88;;
66175;SDS011;52977;44.816;20.538;2022-10-24T20:20:02;23.73;;;10.07;;
66175;SDS011;52977;44.816;20.538;2022-10-24T20:22:30;29.58;;;12.05;;
66175;SDS011;52977;44.816;20.538;2022-10-24T20:24:56;31.30;;;11.70;;
66175;SDS011;52977;44.816;20.538;2022-10-24T20:27:24;27.52;;;11.02;;
66175;SDS011;52977;44.816;20.538;2022-10-24T20:29:50;24.73;;;10.98;;
66175;SDS011;52977;44.816;20.538;2022-10-24T20:32:18;25.73;;;11.35;;
66175;SDS011;52977;44.816;20.538;2022-10-24T20:34:45;31.80;;;11.32;;
66175;SDS011;52977;44.816;20.538;2022-10-24T20:37:12;24.40;;;10.38;;
66175;SDS011;52977;44.816;20.538;2022-10-24T20:39:38;31.38;;;11.20;;
66175;SDS011;52977;44.816;20.538;2022-10-24T20:42:06;29.10;;;12.65;;
66175;SDS011;52977;44.816;20.538;2022-10-24T20:44:34;35.17;;;11.98;;
66175;SDS011;52977;44.816;20.538;2022-10-24T20:47:01;25.23;;;11.77;;
66175;SDS011;52977;44.816;20.538;2022-10-24T20:49:29;27.67;;;12.70;;
66175;SDS011;52977;44.816;20.538;2022-10-24T20:51:55;33.28;;;13.20;;
66175;SDS011;52977;44.816;20.538;2022-10-24T20:54:22;27.17;;;10.63;;
66175;SDS011;52977;44.816;20.538;2022-10-24T20:56:48;29.35;;;10.82;;
66175;SDS011;52977;44.816;20.538;2022-10-24T20:59:15;33.92;;;12.00;;
66175;SDS011;52977;44.816;20.538;2022-10-24T21:01:45;26.73;;;10.80;;
66175;SDS011;52977;44.816;20.538;2022-10-24T21:04:11;26.52;;;10.13;;
66175;SDS011;52977;44.816;20.538;2022-10-24T21:06:38;25.08;;;10.25;;
66175;SDS011;52977;44.816;20.538;2022-10-24T21:09:06;21.15;;;8.05;;
66175;SDS011;52977;44.816;20.538;2022-10-24T21:11:33;18.92;;;7.75;;
66175;SDS011;52977;44.816;20.538;2022-10-24T21:14:01;24.83;;;7.78;;
66175;SDS011;52977;44.816;20.538;2022-10-24T21:16:33;19.55;;;6.95;;
66175;SDS011;52977;44.816;20.538;2022-10-24T21:18:59;19.67;;;7.82;;
66175;SDS011;52977;44.816;20.538;2022-10-24T21:21:27;26.92;;;9.13;;
66175;SDS011;52977;44.816;20.538;2022-10-24T21:23:55;24.63;;;8.10;;
66175;SDS011;52977;44.816;20.538;2022-10-24T21:26:27;21.33;;;7.80;;
66175;SDS011;52977;44.816;20.538;2022-10-24T21:28:54;26.73;;;8.45;;
66175;SDS011;52977;44.816;20.538;2022-10-24T21:31:22;23.60;;;7.95;;
66175;SDS011;52977;44.816;20.538;2022-10-24T21:33:49;20.38;;;8.30;;
66175;SDS011;52977;44.816;20.538;2022-10-24T21:36:17;20.50;;;8.35;;
66175;SDS011;52977;44.816;20.538;2022-10-24T21:38:46;21.02;;;8.32;;
66175;SDS011;52977;44.816;20.538;2022-10-24T21:41:20;28.10;;;9.05;;
66175;SDS011;52977;44.816;20.538;2022-10-24T21:43:48;24.80;;;8.93;;
66175;SDS011;52977;44.816;20.538;2022-10-24T21:46:22;22.30;;;8.60;;
66175;SDS011;52977;44.816;20.538;2022-10-24T21:48:51;29.08;;;10.60;;
66175;SDS011;52977;44.816;20.538;2022-10-24T21:51:25;29.17;;;10.77;;
66175;SDS011;52977;44.816;20.538;2022-10-24T21:53:54;28.95;;;9.93;;
66175;SDS011;52977;44.816;20.538;2022-10-24T21:56:24;25.48;;;10.63;;
66175;SDS011;52977;44.816;20.538;2022-10-24T21:58:52;20.67;;;10.15;;
66175;SDS011;52977;44.816;20.538;2022-10-24T22:01:22;26.75;;;10.45;;
66175;SDS011;52977;44.816;20.538;2022-10-24T22:03:53;23.15;;;9.05;;
66175;SDS011;52977;44.816;20.538;2022-10-24T22:06:20;23.58;;;9.13;;
66175;SDS011;52977;44.816;20.538;2022-10-24T22:08:47;24.17;;;9.68;;
66175;SDS011;52977;44.816;20.538;2022-10-24T22:11:16;26.70;;;9.65;;
66175;SDS011;52977;44.816;20.538;2022-10-24T22:13:45;21.10;;;8.45;;
66175;SDS011;52977;44.816;20.538;2022-10-24T22:16:14;27.80;;;10.38;;
66175;SDS011;52977;44.816;20.538;2022-10-24T22:18:42;21.45;;;8.95;;
66175;SDS011;52977;44.816;20.538;2022-10-24T22:21:08;23.60;;;8.65;;
66175;SDS011;52977;44.816;20.538;2022-10-24T22:23:47;22.25;;;8.25;;
66175;SDS011;52977;44.816;20.538;2022-10-24T22:26:13;19.73;;;7.72;;
66175;SDS011;52977;44.816;20.538;2022-10-24T22:28:39;19.65;;;7.32;;
66175;SDS011;52977;44.816;20.538;2022-10-24T22:31:06;15.05;;;6.88;;
66175;SDS011;52977;44.816;20.538;2022-10-24T22:33:34;17.55;;;6.78;;
66175;SDS011;52977;44.816;20.538;2022-10-24T22:36:23;19.58;;;6.13;;
66175;SDS011;52977;44.816;20.538;2022-10-24T22:39:03;22.08;;;6.15;;
66175;SDS011;52977;44.816;20.538;2022-10-24T22:41:35;20.08;;;6.30;;
66175;SDS011;52977;44.816;20.538;2022-10-24T22:44:02;20.50;;;5.97;;
66175;SDS011;52977;44.816;20.538;2022-10-24T22:51:58;29.70;;;8.35;;
66175;SDS011;52977;44.816;20.538;2022-10-24T22:54:25;28.27;;;8.43;;
66175;SDS011;52977;44.816;20.538;2022-10-24T22:56:57;21.45;;;8.82;;
66175;SDS011;52977;44.816;20.538;2022-10-24T22:59:24;25.23;;;9.57;;
66175;SDS011;52977;44.816;20.538;2022-10-24T23:01:54;28.38;;;9.93;;
66175;SDS011;52977;44.816;20.538;2022-10-24T23:04:34;31.13;;;9.65;;
66175;SDS011;52977;44.816;20.538;2022-10-24T23:09:39;32.10;;;10.27;;
66175;SDS011;52977;44.816;20.538;2022-10-24T23:12:09;26.98;;;10.18;;
66175;SDS011;52977;44.816;20.538;2022-10-24T23:14:41;25.00;;;11.38;;
66175;SDS011;52977;44.816;20.538;2022-10-24T23:17:07;24.55;;;10.85;;
66175;SDS011;52977;44.816;20.538;2022-10-24T23:19:39;21.17;;;10.20;;
66175;SDS011;52977;44.816;20.538;2022-10-24T23:24:56;30.90;;;10.85;;
66175;SDS011;52977;44.816;20.538;2022-10-24T23:27:38;32.20;;;11.27;;
66175;SDS011;52977;44.816;20.538;2022-10-24T23:30:15;24.63;;;11.00;;
66175;SDS011;52977;44.816;20.538;2022-10-24T23:32:43;29.17;;;10.93;;
66175;SDS011;52977;44.816;20.538;2022-10-24T23:35:14;25.23;;;11.02;;
66175;SDS011;52977;44.816;20.538;2022-10-24T23:37:46;27.92;;;11.40;;
66175;SDS011;52977;44.816;20.538;2022-10-24T23:45:22;30.63;;;12.85;;
66175;SDS011;52977;44.816;20.538;2022-10-24T23:53:16;27.65;;;11.90;;
66175;SDS011;52977;44.816;20.538;2022-10-24T23:55:50;35.20;;;13.27;;
66175;SDS011;52977;44.816;20.538;2022-10-24T23:58:16;24.48;;;11.38;;
